KARA/ARA METAR and TAF weather

Enter ICAO airport designator
Station Type Date Time Source
KARA METAR 2020/09/18 22:53 UTC NOAA

KARA 182253Z 03012KT 10SM BKN110 24/19 A2995 RMK AO2 SLP141 T02390189


Station Type Date Time Source
KARA Decoded METAR 2020/09/18 22:53 UTC NOAA

NEW IBERIA ACADIANA REGIONAL, LA, United States (KARA) 30-02N 091-53W 18M
Sep 18, 2020 - 06:53 PM EDT / 2020.09.18 2253 UTC
Wind: from the NNE (030 degrees) at 14 MPH (12 KT):0
Visibility: 10 mile(s):0
Sky conditions: mostly cloudy
Temperature: 75.0 F (23.9 C)
Dew Point: 66.0 F (18.9 C)
Relative Humidity: 73%
Pressure (altimeter): 29.95 in. Hg (1014 hPa)
ob: KARA 182253Z 03012KT 10SM BKN110 24/19 A2995 RMK AO2 SLP141 T02390189
cycle: 23

Station Type Date Time Source
KARA TAF 2020/09/18 18:30 UTC NOAA

TAF KARA 181724Z 1818/1918 03010KT P6SM FEW120 OVC200
FM190100 03005KT P6SM SCT080 BKN250
FM191500 03012KT P6SM VCSH BKN080

Example: see airport list